Terminal Aerodrome Forecast
Issued by NWS

Home | Current Version | Previous Version | Text Only | Print | Product List | Glossary On
Versions: 1 2 3 4 5 6 7 8 9 10 11 12 13 14 15 16 17 18 19 20 21 22 23 24 25 26 27
912
FTUS41 KPHI 050301 AAB
TAFPNE
TAF AMD
KPNE 050301Z 0503/0524 05006KT 2SM -DZ BR SCT007 OVC011
      TEMPO 0503/0507 5SM BR BKN007
     FM050700 04010KT 4SM -DZ BR OVC009
     FM051400 04010KT P6SM OVC015
     FM052000 04010KT P6SM OVC025=

USA.gov is the U.S. government's official web portal to all federal, state and local government web resources and services.